Terminal Aerodrome Forecast
Issued by NWS Newport/Morehead City, NC

Home | Current Version | Previous Version | Graphics & Text | Print | Product List | Glossary On
Versions: 1 2 3 4 5 6 7 8 9 10 11 12 13 14 15 16 17
000
FTUS42 KMHX 262341
TAFEWN
TAF
KEWN 262341Z 2700/2724 06005KT P6SM VCSH SCT025 BKN040
     FM270500 00000KT 3SM BR SCT005
     FM271400 05008KT P6SM SCT025 BKN040
     FM271700 05008KT P6SM VCTS BKN040CB=

USA.gov is the U.S. government's official web portal to all federal, state and local government web resources and services.